sensor_id;sensor_type;location;lat;lon;timestamp;P1;durP1;ratioP1;P2;durP2;ratioP2
13795;SDS011;40911;51.552;9.874;2022-11-20T00:02:16;13.77;;;11.48;;
13795;SDS011;40911;51.552;9.874;2022-11-20T00:04:38;14.40;;;11.65;;
13795;SDS011;40911;51.552;9.874;2022-11-20T00:07:00;15.73;;;11.60;;
13795;SDS011;40911;51.552;9.874;2022-11-20T00:09:22;14.68;;;11.48;;
13795;SDS011;40911;51.552;9.874;2022-11-20T00:11:44;13.98;;;10.65;;
13795;SDS011;40911;51.552;9.874;2022-11-20T00:14:05;16.00;;;11.88;;
13795;SDS011;40911;51.552;9.874;2022-11-20T00:16:30;17.70;;;11.57;;
13795;SDS011;40911;51.552;9.874;2022-11-20T00:18:53;16.88;;;12.50;;
13795;SDS011;40911;51.552;9.874;2022-11-20T00:21:16;18.05;;;11.85;;
13795;SDS011;40911;51.552;9.874;2022-11-20T00:23:39;16.60;;;12.13;;
13795;SDS011;40911;51.552;9.874;2022-11-20T00:26:02;17.58;;;12.10;;
13795;SDS011;40911;51.552;9.874;2022-11-20T00:28:24;19.73;;;12.50;;
13795;SDS011;40911;51.552;9.874;2022-11-20T00:30:46;16.70;;;12.68;;
13795;SDS011;40911;51.552;9.874;2022-11-20T00:33:09;19.58;;;13.25;;
13795;SDS011;40911;51.552;9.874;2022-11-20T00:35:31;21.40;;;12.85;;
13795;SDS011;40911;51.552;9.874;2022-11-20T00:37:53;18.13;;;13.10;;
13795;SDS011;40911;51.552;9.874;2022-11-20T00:40:15;15.57;;;12.15;;
13795;SDS011;40911;51.552;9.874;2022-11-20T00:42:37;15.13;;;11.75;;
13795;SDS011;40911;51.552;9.874;2022-11-20T00:44:59;17.95;;;12.40;;
13795;SDS011;40911;51.552;9.874;2022-11-20T00:47:21;16.67;;;12.05;;
13795;SDS011;40911;51.552;9.874;2022-11-20T00:49:44;19.15;;;13.00;;
13795;SDS011;40911;51.552;9.874;2022-11-20T00:52:06;18.60;;;12.52;;
13795;SDS011;40911;51.552;9.874;2022-11-20T00:54:28;17.77;;;12.50;;
13795;SDS011;40911;51.552;9.874;2022-11-20T00:56:49;18.80;;;12.63;;
13795;SDS011;40911;51.552;9.874;2022-11-20T00:59:14;16.38;;;11.90;;
13795;SDS011;40911;51.552;9.874;2022-11-20T01:01:35;17.38;;;12.48;;
13795;SDS011;40911;51.552;9.874;2022-11-20T01:03:58;16.42;;;12.25;;
13795;SDS011;40911;51.552;9.874;2022-11-20T01:06:23;14.80;;;11.68;;
13795;SDS011;40911;51.552;9.874;2022-11-20T01:08:46;15.80;;;11.35;;
13795;SDS011;40911;51.552;9.874;2022-11-20T01:11:10;15.98;;;10.98;;
13795;SDS011;40911;51.552;9.874;2022-11-20T01:13:33;14.32;;;11.23;;
13795;SDS011;40911;51.552;9.874;2022-11-20T01:16:01;16.20;;;11.68;;
13795;SDS011;40911;51.552;9.874;2022-11-20T01:18:23;15.73;;;11.75;;
13795;SDS011;40911;51.552;9.874;2022-11-20T01:23:08;19.85;;;13.02;;
13795;SDS011;40911;51.552;9.874;2022-11-20T01:25:30;17.45;;;11.90;;
13795;SDS011;40911;51.552;9.874;2022-11-20T01:27:52;15.98;;;11.40;;
13795;SDS011;40911;51.552;9.874;2022-11-20T01:30:14;18.27;;;11.85;;
13795;SDS011;40911;51.552;9.874;2022-11-20T01:32:36;16.65;;;12.05;;
13795;SDS011;40911;51.552;9.874;2022-11-20T01:34:57;15.48;;;11.68;;
13795;SDS011;40911;51.552;9.874;2022-11-20T01:37:19;16.70;;;11.77;;
13795;SDS011;40911;51.552;9.874;2022-11-20T01:39:43;17.08;;;12.13;;
13795;SDS011;40911;51.552;9.874;2022-11-20T01:42:04;15.38;;;12.00;;
13795;SDS011;40911;51.552;9.874;2022-11-20T01:44:48;18.67;;;12.00;;
13795;SDS011;40911;51.552;9.874;2022-11-20T01:47:13;16.77;;;11.63;;
13795;SDS011;40911;51.552;9.874;2022-11-20T01:49:37;16.20;;;11.60;;
13795;SDS011;40911;51.552;9.874;2022-11-20T01:52:03;15.65;;;12.18;;
13795;SDS011;40911;51.552;9.874;2022-11-20T01:54:28;16.27;;;11.52;;
13795;SDS011;40911;51.552;9.874;2022-11-20T01:56:56;15.07;;;12.23;;
13795;SDS011;40911;51.552;9.874;2022-11-20T01:59:20;15.70;;;12.20;;
13795;SDS011;40911;51.552;9.874;2022-11-20T02:01:44;17.55;;;13.00;;
13795;SDS011;40911;51.552;9.874;2022-11-20T02:04:06;20.40;;;12.40;;
13795;SDS011;40911;51.552;9.874;2022-11-20T02:06:30;16.30;;;11.40;;
13795;SDS011;40911;51.552;9.874;2022-11-20T02:08:56;17.63;;;11.52;;
13795;SDS011;40911;51.552;9.874;2022-11-20T02:11:21;15.90;;;12.10;;
13795;SDS011;40911;51.552;9.874;2022-11-20T02:13:45;15.95;;;12.07;;
13795;SDS011;40911;51.552;9.874;2022-11-20T02:16:08;17.90;;;11.85;;
13795;SDS011;40911;51.552;9.874;2022-11-20T02:18:31;18.52;;;12.85;;
13795;SDS011;40911;51.552;9.874;2022-11-20T02:20:54;17.00;;;12.68;;
13795;SDS011;40911;51.552;9.874;2022-11-20T02:23:20;13.85;;;11.43;;
13795;SDS011;40911;51.552;9.874;2022-11-20T02:25:49;18.10;;;12.55;;
13795;SDS011;40911;51.552;9.874;2022-11-20T02:28:12;21.70;;;12.40;;
13795;SDS011;40911;51.552;9.874;2022-11-20T02:30:34;18.02;;;11.93;;
13795;SDS011;40911;51.552;9.874;2022-11-20T02:32:55;17.65;;;12.25;;
13795;SDS011;40911;51.552;9.874;2022-11-20T02:35:41;16.73;;;12.20;;
13795;SDS011;40911;51.552;9.874;2022-11-20T02:38:05;15.90;;;12.23;;
13795;SDS011;40911;51.552;9.874;2022-11-20T02:40:29;17.05;;;11.98;;
13795;SDS011;40911;51.552;9.874;2022-11-20T02:42:53;19.77;;;12.32;;
13795;SDS011;40911;51.552;9.874;2022-11-20T02:45:15;18.25;;;12.65;;
13795;SDS011;40911;51.552;9.874;2022-11-20T02:47:37;16.67;;;11.32;;
13795;SDS011;40911;51.552;9.874;2022-11-20T02:50:02;15.27;;;12.32;;
13795;SDS011;40911;51.552;9.874;2022-11-20T02:52:25;18.48;;;12.73;;
13795;SDS011;40911;51.552;9.874;2022-11-20T02:54:47;16.38;;;12.68;;
13795;SDS011;40911;51.552;9.874;2022-11-20T02:57:09;15.63;;;11.95;;
13795;SDS011;40911;51.552;9.874;2022-11-20T02:59:32;17.17;;;12.60;;
13795;SDS011;40911;51.552;9.874;2022-11-20T03:01:55;14.90;;;12.50;;
13795;SDS011;40911;51.552;9.874;2022-11-20T03:04:17;17.40;;;12.60;;
13795;SDS011;40911;51.552;9.874;2022-11-20T03:06:39;17.15;;;11.75;;
13795;SDS011;40911;51.552;9.874;2022-11-20T03:09:01;17.80;;;12.05;;
13795;SDS011;40911;51.552;9.874;2022-11-20T03:11:23;13.73;;;11.23;;
13795;SDS011;40911;51.552;9.874;2022-11-20T03:13:45;13.73;;;10.75;;
13795;SDS011;40911;51.552;9.874;2022-11-20T03:16:12;17.70;;;11.73;;
13795;SDS011;40911;51.552;9.874;2022-11-20T03:18:35;13.60;;;11.10;;
13795;SDS011;40911;51.552;9.874;2022-11-20T03:20:57;13.57;;;11.10;;
13795;SDS011;40911;51.552;9.874;2022-11-20T03:23:20;15.82;;;12.02;;
13795;SDS011;40911;51.552;9.874;2022-11-20T03:25:41;14.68;;;11.65;;
13795;SDS011;40911;51.552;9.874;2022-11-20T03:28:03;16.80;;;11.68;;
13795;SDS011;40911;51.552;9.874;2022-11-20T03:30:28;13.77;;;11.50;;
13795;SDS011;40911;51.552;9.874;2022-11-20T03:32:53;14.23;;;11.65;;
13795;SDS011;40911;51.552;9.874;2022-11-20T03:35:15;15.05;;;11.70;;
13795;SDS011;40911;51.552;9.874;2022-11-20T03:37:37;17.13;;;11.60;;
13795;SDS011;40911;51.552;9.874;2022-11-20T03:39:59;15.60;;;11.63;;
13795;SDS011;40911;51.552;9.874;2022-11-20T03:42:21;16.80;;;11.75;;
13795;SDS011;40911;51.552;9.874;2022-11-20T03:45:01;15.85;;;11.20;;
13795;SDS011;40911;51.552;9.874;2022-11-20T03:47:22;18.13;;;11.63;;
13795;SDS011;40911;51.552;9.874;2022-11-20T03:49:45;13.98;;;10.85;;
13795;SDS011;40911;51.552;9.874;2022-11-20T03:52:07;17.13;;;11.57;;
13795;SDS011;40911;51.552;9.874;2022-11-20T03:54:29;14.95;;;11.70;;
13795;SDS011;40911;51.552;9.874;2022-11-20T03:56:51;14.83;;;10.67;;
13795;SDS011;40911;51.552;9.874;2022-11-20T03:59:13;14.15;;;11.25;;
13795;SDS011;40911;51.552;9.874;2022-11-20T04:01:35;13.05;;;10.63;;
13795;SDS011;40911;51.552;9.874;2022-11-20T04:03:58;15.27;;;11.20;;
13795;SDS011;40911;51.552;9.874;2022-11-20T04:06:22;15.07;;;10.57;;
13795;SDS011;40911;51.552;9.874;2022-11-20T04:08:45;14.37;;;10.93;;
13795;SDS011;40911;51.552;9.874;2022-11-20T04:11:08;13.73;;;11.13;;
13795;SDS011;40911;51.552;9.874;2022-11-20T04:13:30;14.23;;;10.90;;
13795;SDS011;40911;51.552;9.874;2022-11-20T04:15:56;14.83;;;10.93;;
13795;SDS011;40911;51.552;9.874;2022-11-20T04:18:21;14.18;;;10.95;;
13795;SDS011;40911;51.552;9.874;2022-11-20T04:20:43;16.38;;;10.77;;
13795;SDS011;40911;51.552;9.874;2022-11-20T04:23:06;14.13;;;11.57;;
13795;SDS011;40911;51.552;9.874;2022-11-20T04:25:28;14.50;;;11.23;;
13795;SDS011;40911;51.552;9.874;2022-11-20T04:27:49;15.37;;;11.03;;
13795;SDS011;40911;51.552;9.874;2022-11-20T04:30:12;15.70;;;10.70;;
13795;SDS011;40911;51.552;9.874;2022-11-20T04:32:34;17.03;;;11.63;;
13795;SDS011;40911;51.552;9.874;2022-11-20T04:34:56;15.43;;;10.93;;
13795;SDS011;40911;51.552;9.874;2022-11-20T04:37:17;14.50;;;11.27;;
13795;SDS011;40911;51.552;9.874;2022-11-20T04:39:41;14.30;;;10.98;;
13795;SDS011;40911;51.552;9.874;2022-11-20T04:42:03;14.10;;;10.77;;
13795;SDS011;40911;51.552;9.874;2022-11-20T04:44:42;18.80;;;11.77;;
13795;SDS011;40911;51.552;9.874;2022-11-20T04:47:04;14.10;;;11.03;;
13795;SDS011;40911;51.552;9.874;2022-11-20T04:49:26;14.55;;;11.15;;
13795;SDS011;40911;51.552;9.874;2022-11-20T04:51:48;13.50;;;11.15;;
13795;SDS011;40911;51.552;9.874;2022-11-20T04:54:14;16.63;;;11.33;;
13795;SDS011;40911;51.552;9.874;2022-11-20T04:56:37;13.43;;;11.17;;
13795;SDS011;40911;51.552;9.874;2022-11-20T04:59:00;14.50;;;11.30;;
13795;SDS011;40911;51.552;9.874;2022-11-20T05:01:23;16.50;;;11.63;;
13795;SDS011;40911;51.552;9.874;2022-11-20T05:03:45;14.03;;;11.00;;
13795;SDS011;40911;51.552;9.874;2022-11-20T05:06:08;17.53;;;11.83;;
13795;SDS011;40911;51.552;9.874;2022-11-20T05:08:31;17.80;;;12.40;;
13795;SDS011;40911;51.552;9.874;2022-11-20T05:10:53;17.63;;;11.90;;
13795;SDS011;40911;51.552;9.874;2022-11-20T05:13:16;14.60;;;11.17;;
13795;SDS011;40911;51.552;9.874;2022-11-20T05:15:40;15.83;;;11.27;;
13795;SDS011;40911;51.552;9.874;2022-11-20T05:18:02;16.97;;;11.93;;
13795;SDS011;40911;51.552;9.874;2022-11-20T05:20:24;17.00;;;11.77;;
13795;SDS011;40911;51.552;9.874;2022-11-20T05:22:45;13.03;;;11.23;;
13795;SDS011;40911;51.552;9.874;2022-11-20T05:25:07;19.60;;;12.77;;
13795;SDS011;40911;51.552;9.874;2022-11-20T05:27:29;15.03;;;11.60;;
13795;SDS011;40911;51.552;9.874;2022-11-20T05:29:52;14.10;;;11.38;;
13795;SDS011;40911;51.552;9.874;2022-11-20T05:32:14;13.40;;;11.17;;
13795;SDS011;40911;51.552;9.874;2022-11-20T05:34:36;17.70;;;11.77;;
13795;SDS011;40911;51.552;9.874;2022-11-20T05:39:19;15.07;;;12.07;;
13795;SDS011;40911;51.552;9.874;2022-11-20T05:41:41;14.07;;;11.67;;
13795;SDS011;40911;51.552;9.874;2022-11-20T05:44:03;15.17;;;11.40;;
13795;SDS011;40911;51.552;9.874;2022-11-20T05:46:27;13.50;;;11.43;;
13795;SDS011;40911;51.552;9.874;2022-11-20T05:48:48;17.00;;;12.73;;
13795;SDS011;40911;51.552;9.874;2022-11-20T05:51:11;17.53;;;12.50;;
13795;SDS011;40911;51.552;9.874;2022-11-20T05:53:34;14.40;;;11.23;;
13795;SDS011;40911;51.552;9.874;2022-11-20T05:55:57;16.67;;;12.00;;
13795;SDS011;40911;51.552;9.874;2022-11-20T05:58:20;16.40;;;12.33;;
13795;SDS011;40911;51.552;9.874;2022-11-20T06:00:42;16.37;;;12.37;;
13795;SDS011;40911;51.552;9.874;2022-11-20T06:03:08;19.53;;;12.17;;
13795;SDS011;40911;51.552;9.874;2022-11-20T06:05:30;16.60;;;12.90;;
13795;SDS011;40911;51.552;9.874;2022-11-20T06:07:52;16.77;;;11.70;;
13795;SDS011;40911;51.552;9.874;2022-11-20T06:10:14;18.30;;;12.13;;
13795;SDS011;40911;51.552;9.874;2022-11-20T06:12:35;21.60;;;13.87;;
13795;SDS011;40911;51.552;9.874;2022-11-20T06:14:57;18.30;;;13.03;;
13795;SDS011;40911;51.552;9.874;2022-11-20T06:17:19;19.93;;;13.83;;
13795;SDS011;40911;51.552;9.874;2022-11-20T06:19:43;18.77;;;13.37;;
13795;SDS011;40911;51.552;9.874;2022-11-20T06:22:04;17.07;;;12.83;;
13795;SDS011;40911;51.552;9.874;2022-11-20T06:24:26;17.27;;;12.83;;
13795;SDS011;40911;51.552;9.874;2022-11-20T06:26:48;18.97;;;12.90;;
13795;SDS011;40911;51.552;9.874;2022-11-20T06:29:11;17.50;;;12.60;;
13795;SDS011;40911;51.552;9.874;2022-11-20T06:31:34;17.17;;;12.20;;
13795;SDS011;40911;51.552;9.874;2022-11-20T06:33:57;20.20;;;12.87;;
13795;SDS011;40911;51.552;9.874;2022-11-20T06:36:21;16.80;;;12.67;;
13795;SDS011;40911;51.552;9.874;2022-11-20T06:38:44;15.83;;;11.77;;
13795;SDS011;40911;51.552;9.874;2022-11-20T06:41:07;17.57;;;12.53;;
13795;SDS011;40911;51.552;9.874;2022-11-20T06:43:32;18.37;;;12.17;;
13795;SDS011;40911;51.552;9.874;2022-11-20T06:45:54;15.40;;;12.07;;
13795;SDS011;40911;51.552;9.874;2022-11-20T06:48:16;15.10;;;12.23;;
13795;SDS011;40911;51.552;9.874;2022-11-20T06:50:39;16.80;;;12.87;;
13795;SDS011;40911;51.552;9.874;2022-11-20T06:53:03;16.07;;;12.40;;
13795;SDS011;40911;51.552;9.874;2022-11-20T06:55:26;16.47;;;12.30;;
13795;SDS011;40911;51.552;9.874;2022-11-20T06:57:47;17.33;;;12.60;;
13795;SDS011;40911;51.552;9.874;2022-11-20T07:00:10;16.63;;;12.57;;
13795;SDS011;40911;51.552;9.874;2022-11-20T07:02:33;18.93;;;13.30;;
13795;SDS011;40911;51.552;9.874;2022-11-20T07:04:54;16.70;;;12.47;;
13795;SDS011;40911;51.552;9.874;2022-11-20T07:07:16;19.57;;;12.97;;
13795;SDS011;40911;51.552;9.874;2022-11-20T07:09:40;19.10;;;14.00;;
13795;SDS011;40911;51.552;9.874;2022-11-20T07:12:02;17.77;;;13.63;;
13795;SDS011;40911;51.552;9.874;2022-11-20T07:14:24;19.73;;;14.07;;
13795;SDS011;40911;51.552;9.874;2022-11-20T07:16:46;22.00;;;14.10;;
13795;SDS011;40911;51.552;9.874;2022-11-20T07:19:08;20.90;;;13.97;;
13795;SDS011;40911;51.552;9.874;2022-11-20T07:21:30;19.93;;;12.87;;
13795;SDS011;40911;51.552;9.874;2022-11-20T07:23:52;18.70;;;13.07;;
13795;SDS011;40911;51.552;9.874;2022-11-20T07:26:22;18.23;;;13.13;;
13795;SDS011;40911;51.552;9.874;2022-11-20T07:28:44;18.07;;;12.73;;
13795;SDS011;40911;51.552;9.874;2022-11-20T07:31:06;17.50;;;13.13;;
13795;SDS011;40911;51.552;9.874;2022-11-20T07:33:28;18.30;;;13.27;;
13795;SDS011;40911;51.552;9.874;2022-11-20T07:35:50;20.80;;;13.37;;
13795;SDS011;40911;51.552;9.874;2022-11-20T07:38:12;22.50;;;13.80;;
13795;SDS011;40911;51.552;9.874;2022-11-20T07:40:34;19.17;;;13.60;;
13795;SDS011;40911;51.552;9.874;2022-11-20T07:42:57;19.03;;;13.17;;
13795;SDS011;40911;51.552;9.874;2022-11-20T07:45:20;18.15;;;13.57;;
13795;SDS011;40911;51.552;9.874;2022-11-20T07:47:43;21.63;;;13.85;;
13795;SDS011;40911;51.552;9.874;2022-11-20T07:50:05;20.63;;;13.80;;
13795;SDS011;40911;51.552;9.874;2022-11-20T07:52:28;22.58;;;14.27;;
13795;SDS011;40911;51.552;9.874;2022-11-20T07:54:50;23.42;;;14.60;;
13795;SDS011;40911;51.552;9.874;2022-11-20T07:57:12;24.23;;;14.20;;
13795;SDS011;40911;51.552;9.874;2022-11-20T07:59:35;21.50;;;13.93;;
13795;SDS011;40911;51.552;9.874;2022-11-20T08:01:58;23.52;;;14.48;;
13795;SDS011;40911;51.552;9.874;2022-11-20T08:04:20;22.20;;;14.10;;
13795;SDS011;40911;51.552;9.874;2022-11-20T08:06:43;20.65;;;13.35;;
13795;SDS011;40911;51.552;9.874;2022-11-20T08:09:05;23.17;;;14.50;;
13795;SDS011;40911;51.552;9.874;2022-11-20T08:11:27;29.55;;;18.73;;
13795;SDS011;40911;51.552;9.874;2022-11-20T08:14:06;25.45;;;16.30;;
13795;SDS011;40911;51.552;9.874;2022-11-20T08:16:35;20.83;;;13.38;;
13795;SDS011;40911;51.552;9.874;2022-11-20T08:18:57;24.70;;;14.25;;
13795;SDS011;40911;51.552;9.874;2022-11-20T08:21:19;24.88;;;14.52;;
13795;SDS011;40911;51.552;9.874;2022-11-20T08:23:41;23.83;;;14.00;;
13795;SDS011;40911;51.552;9.874;2022-11-20T08:28:24;26.63;;;14.50;;
13795;SDS011;40911;51.552;9.874;2022-11-20T08:30:46;26.50;;;14.52;;
13795;SDS011;40911;51.552;9.874;2022-11-20T08:33:09;24.45;;;14.07;;
13795;SDS011;40911;51.552;9.874;2022-11-20T08:35:32;23.88;;;13.93;;
13795;SDS011;40911;51.552;9.874;2022-11-20T08:37:56;26.40;;;13.85;;
13795;SDS011;40911;51.552;9.874;2022-11-20T08:40:17;28.95;;;14.15;;
13795;SDS011;40911;51.552;9.874;2022-11-20T08:42:45;24.52;;;14.85;;
13795;SDS011;40911;51.552;9.874;2022-11-20T08:45:08;28.38;;;14.32;;
13795;SDS011;40911;51.552;9.874;2022-11-20T08:47:30;23.58;;;15.38;;
13795;SDS011;40911;51.552;9.874;2022-11-20T08:52:15;21.02;;;13.15;;
13795;SDS011;40911;51.552;9.874;2022-11-20T08:54:36;23.42;;;13.95;;
13795;SDS011;40911;51.552;9.874;2022-11-20T08:56:58;22.77;;;13.98;;
13795;SDS011;40911;51.552;9.874;2022-11-20T08:59:20;25.42;;;13.98;;
13795;SDS011;40911;51.552;9.874;2022-11-20T09:01:42;25.23;;;13.95;;
13795;SDS011;40911;51.552;9.874;2022-11-20T09:04:04;27.17;;;16.02;;
13795;SDS011;40911;51.552;9.874;2022-11-20T09:06:27;21.50;;;13.18;;
13795;SDS011;40911;51.552;9.874;2022-11-20T09:08:51;26.67;;;14.68;;
13795;SDS011;40911;51.552;9.874;2022-11-20T09:11:13;24.33;;;13.30;;
13795;SDS011;40911;51.552;9.874;2022-11-20T09:18:19;20.85;;;12.88;;
13795;SDS011;40911;51.552;9.874;2022-11-20T09:20:41;20.92;;;12.95;;
13795;SDS011;40911;51.552;9.874;2022-11-20T09:23:05;23.48;;;13.32;;
13795;SDS011;40911;51.552;9.874;2022-11-20T09:25:28;22.58;;;13.27;;
13795;SDS011;40911;51.552;9.874;2022-11-20T09:27:54;29.40;;;13.50;;
13795;SDS011;40911;51.552;9.874;2022-11-20T09:30:16;24.15;;;13.27;;
13795;SDS011;40911;51.552;9.874;2022-11-20T09:35:00;22.45;;;13.68;;
13795;SDS011;40911;51.552;9.874;2022-11-20T09:37:22;26.00;;;16.25;;
13795;SDS011;40911;51.552;9.874;2022-11-20T09:39:45;25.73;;;15.30;;
13795;SDS011;40911;51.552;9.874;2022-11-20T09:42:11;23.13;;;14.70;;
13795;SDS011;40911;51.552;9.874;2022-11-20T09:44:47;24.08;;;14.38;;
13795;SDS011;40911;51.552;9.874;2022-11-20T09:47:15;25.42;;;13.90;;
13795;SDS011;40911;51.552;9.874;2022-11-20T09:49:48;21.55;;;13.10;;
13795;SDS011;40911;51.552;9.874;2022-11-20T09:52:22;24.05;;;14.10;;
13795;SDS011;40911;51.552;9.874;2022-11-20T09:54:51;23.25;;;13.93;;
13795;SDS011;40911;51.552;9.874;2022-11-20T09:57:17;23.38;;;14.02;;
13795;SDS011;40911;51.552;9.874;2022-11-20T09:59:42;22.42;;;13.30;;
13795;SDS011;40911;51.552;9.874;2022-11-20T10:02:15;20.25;;;13.57;;
13795;SDS011;40911;51.552;9.874;2022-11-20T10:04:38;20.90;;;13.15;;
13795;SDS011;40911;51.552;9.874;2022-11-20T10:07:10;24.98;;;13.52;;
13795;SDS011;40911;51.552;9.874;2022-11-20T10:09:34;23.45;;;14.23;;
13795;SDS011;40911;51.552;9.874;2022-11-20T10:12:04;22.20;;;13.40;;
13795;SDS011;40911;51.552;9.874;2022-11-20T10:14:35;21.83;;;13.40;;
13795;SDS011;40911;51.552;9.874;2022-11-20T10:17:10;24.73;;;14.45;;
13795;SDS011;40911;51.552;9.874;2022-11-20T10:19:45;22.10;;;13.15;;
13795;SDS011;40911;51.552;9.874;2022-11-20T10:22:21;19.88;;;12.85;;
13795;SDS011;40911;51.552;9.874;2022-11-20T10:25:00;21.60;;;11.75;;
13795;SDS011;40911;51.552;9.874;2022-11-20T10:27:33;20.92;;;12.23;;
13795;SDS011;40911;51.552;9.874;2022-11-20T10:30:07;20.92;;;12.75;;
13795;SDS011;40911;51.552;9.874;2022-11-20T10:32:32;19.48;;;12.45;;
13795;SDS011;40911;51.552;9.874;2022-11-20T10:34:58;21.23;;;13.05;;
13795;SDS011;40911;51.552;9.874;2022-11-20T10:37:23;22.73;;;14.48;;
13795;SDS011;40911;51.552;9.874;2022-11-20T10:39:49;20.73;;;13.73;;
13795;SDS011;40911;51.552;9.874;2022-11-20T10:42:14;19.60;;;13.15;;
13795;SDS011;40911;51.552;9.874;2022-11-20T10:44:46;22.45;;;14.48;;
13795;SDS011;40911;51.552;9.874;2022-11-20T10:47:23;18.92;;;12.73;;
13795;SDS011;40911;51.552;9.874;2022-11-20T10:49:48;24.13;;;13.38;;
13795;SDS011;40911;51.552;9.874;2022-11-20T10:52:15;20.30;;;12.35;;
13795;SDS011;40911;51.552;9.874;2022-11-20T10:54:46;20.77;;;11.75;;
13795;SDS011;40911;51.552;9.874;2022-11-20T10:57:14;20.65;;;13.02;;
13795;SDS011;40911;51.552;9.874;2022-11-20T10:59:53;20.92;;;11.90;;
13795;SDS011;40911;51.552;9.874;2022-11-20T11:02:22;18.38;;;11.75;;
13795;SDS011;40911;51.552;9.874;2022-11-20T11:04:45;20.13;;;12.18;;
13795;SDS011;40911;51.552;9.874;2022-11-20T11:07:09;18.38;;;12.13;;
13795;SDS011;40911;51.552;9.874;2022-11-20T11:09:35;23.45;;;13.20;;
13795;SDS011;40911;51.552;9.874;2022-11-20T11:12:05;23.60;;;13.93;;
13795;SDS011;40911;51.552;9.874;2022-11-20T11:14:28;19.13;;;12.20;;
13795;SDS011;40911;51.552;9.874;2022-11-20T11:19:13;21.00;;;12.32;;
13795;SDS011;40911;51.552;9.874;2022-11-20T11:21:35;19.48;;;12.73;;
13795;SDS011;40911;51.552;9.874;2022-11-20T11:24:02;20.67;;;12.98;;
13795;SDS011;40911;51.552;9.874;2022-11-20T11:26:25;22.38;;;13.10;;
13795;SDS011;40911;51.552;9.874;2022-11-20T11:28:52;22.77;;;13.32;;
13795;SDS011;40911;51.552;9.874;2022-11-20T11:31:21;23.83;;;13.48;;
13795;SDS011;40911;51.552;9.874;2022-11-20T11:33:45;22.13;;;13.23;;
13795;SDS011;40911;51.552;9.874;2022-11-20T11:36:15;21.73;;;13.63;;
13795;SDS011;40911;51.552;9.874;2022-11-20T11:38:41;26.27;;;14.90;;
13795;SDS011;40911;51.552;9.874;2022-11-20T11:41:04;25.58;;;15.30;;
13795;SDS011;40911;51.552;9.874;2022-11-20T11:43:28;23.50;;;13.52;;
13795;SDS011;40911;51.552;9.874;2022-11-20T11:46:21;27.73;;;15.77;;
13795;SDS011;40911;51.552;9.874;2022-11-20T11:48:55;27.70;;;14.57;;
13795;SDS011;40911;51.552;9.874;2022-11-20T11:51:19;26.95;;;14.38;;
13795;SDS011;40911;51.552;9.874;2022-11-20T11:53:42;25.05;;;14.32;;
13795;SDS011;40911;51.552;9.874;2022-11-20T11:56:05;23.90;;;14.25;;
13795;SDS011;40911;51.552;9.874;2022-11-20T11:58:40;25.65;;;14.88;;
13795;SDS011;40911;51.552;9.874;2022-11-20T12:01:07;22.48;;;13.85;;
13795;SDS011;40911;51.552;9.874;2022-11-20T12:03:38;24.50;;;13.70;;
13795;SDS011;40911;51.552;9.874;2022-11-20T12:06:04;18.35;;;12.98;;
13795;SDS011;40911;51.552;9.874;2022-11-20T12:08:36;23.77;;;14.25;;
13795;SDS011;40911;51.552;9.874;2022-11-20T12:11:06;22.98;;;13.90;;
13795;SDS011;40911;51.552;9.874;2022-11-20T12:13:40;23.80;;;14.05;;
13795;SDS011;40911;51.552;9.874;2022-11-20T12:16:09;22.60;;;13.57;;
13795;SDS011;40911;51.552;9.874;2022-11-20T12:18:34;24.90;;;14.45;;
13795;SDS011;40911;51.552;9.874;2022-11-20T12:23:27;21.40;;;12.90;;
13795;SDS011;40911;51.552;9.874;2022-11-20T12:25:52;20.75;;;13.05;;
13795;SDS011;40911;51.552;9.874;2022-11-20T12:28:20;21.67;;;13.20;;
13795;SDS011;40911;51.552;9.874;2022-11-20T12:31:04;20.27;;;12.50;;
13795;SDS011;40911;51.552;9.874;2022-11-20T12:33:58;24.02;;;13.05;;
13795;SDS011;40911;51.552;9.874;2022-11-20T12:36:33;23.27;;;13.25;;
13795;SDS011;40911;51.552;9.874;2022-11-20T12:39:07;19.27;;;12.52;;
13795;SDS011;40911;51.552;9.874;2022-11-20T12:41:49;21.02;;;12.55;;
13795;SDS011;40911;51.552;9.874;2022-11-20T12:44:41;18.38;;;12.35;;
13795;SDS011;40911;51.552;9.874;2022-11-20T12:47:32;19.00;;;12.38;;
13795;SDS011;40911;51.552;9.874;2022-11-20T12:50:14;21.23;;;12.18;;
13795;SDS011;40911;51.552;9.874;2022-11-20T12:52:43;17.00;;;11.30;;
13795;SDS011;40911;51.552;9.874;2022-11-20T12:55:15;20.63;;;12.43;;
13795;SDS011;40911;51.552;9.874;2022-11-20T12:57:46;18.77;;;11.23;;
13795;SDS011;40911;51.552;9.874;2022-11-20T13:00:25;15.07;;;10.82;;
13795;SDS011;40911;51.552;9.874;2022-11-20T13:05:54;16.83;;;12.15;;
13795;SDS011;40911;51.552;9.874;2022-11-20T13:08:21;19.70;;;11.88;;
13795;SDS011;40911;51.552;9.874;2022-11-20T13:10:47;20.75;;;12.35;;
13795;SDS011;40911;51.552;9.874;2022-11-20T13:13:13;17.10;;;11.15;;
13795;SDS011;40911;51.552;9.874;2022-11-20T13:15:42;19.13;;;11.52;;
13795;SDS011;40911;51.552;9.874;2022-11-20T13:18:11;15.75;;;10.95;;
13795;SDS011;40911;51.552;9.874;2022-11-20T13:20:34;14.90;;;10.07;;
13795;SDS011;40911;51.552;9.874;2022-11-20T13:22:57;15.95;;;10.52;;
13795;SDS011;40911;51.552;9.874;2022-11-20T13:27:48;14.90;;;9.80;;
13795;SDS011;40911;51.552;9.874;2022-11-20T13:30:12;13.77;;;9.70;;
13795;SDS011;40911;51.552;9.874;2022-11-20T13:32:47;16.80;;;10.20;;
13795;SDS011;40911;51.552;9.874;2022-11-20T13:35:09;14.57;;;9.48;;
13795;SDS011;40911;51.552;9.874;2022-11-20T13:40:04;14.73;;;8.60;;
13795;SDS011;40911;51.552;9.874;2022-11-20T13:42:33;14.60;;;9.80;;
13795;SDS011;40911;51.552;9.874;2022-11-20T13:45:02;16.40;;;9.82;;
13795;SDS011;40911;51.552;9.874;2022-11-20T13:47:29;14.55;;;10.13;;
13795;SDS011;40911;51.552;9.874;2022-11-20T13:55:07;17.00;;;11.15;;
13795;SDS011;40911;51.552;9.874;2022-11-20T13:57:40;16.52;;;10.85;;
13795;SDS011;40911;51.552;9.874;2022-11-20T14:00:22;16.92;;;11.27;;
13795;SDS011;40911;51.552;9.874;2022-11-20T14:02:48;17.60;;;11.70;;
13795;SDS011;40911;51.552;9.874;2022-11-20T14:05:22;16.10;;;11.23;;
13795;SDS011;40911;51.552;9.874;2022-11-20T14:07:44;17.15;;;11.32;;
13795;SDS011;40911;51.552;9.874;2022-11-20T14:10:18;17.40;;;11.30;;
13795;SDS011;40911;51.552;9.874;2022-11-20T14:12:41;15.52;;;10.55;;
13795;SDS011;40911;51.552;9.874;2022-11-20T14:17:30;16.52;;;11.27;;
13795;SDS011;40911;51.552;9.874;2022-11-20T14:19:53;19.70;;;12.38;;
13795;SDS011;40911;51.552;9.874;2022-11-20T14:22:18;17.98;;;11.75;;
13795;SDS011;40911;51.552;9.874;2022-11-20T14:24:41;14.77;;;10.70;;
13795;SDS011;40911;51.552;9.874;2022-11-20T14:29:27;12.77;;;9.48;;
13795;SDS011;40911;51.552;9.874;2022-11-20T14:31:51;14.57;;;9.65;;
13795;SDS011;40911;51.552;9.874;2022-11-20T14:34:17;13.50;;;9.52;;
13795;SDS011;40911;51.552;9.874;2022-11-20T14:36:41;11.38;;;8.30;;
13795;SDS011;40911;51.552;9.874;2022-11-20T14:39:07;13.45;;;8.90;;
13795;SDS011;40911;51.552;9.874;2022-11-20T14:41:32;14.82;;;9.93;;
13795;SDS011;40911;51.552;9.874;2022-11-20T14:46:17;15.65;;;9.27;;
13795;SDS011;40911;51.552;9.874;2022-11-20T14:48:40;16.25;;;9.45;;
13795;SDS011;40911;51.552;9.874;2022-11-20T14:51:08;16.70;;;11.25;;